Angle Inlet, Minnesota
Current Conditions -  °F | °C
As of 4:34 AM on Tuesday 27 Jan 2015 (Local Time) from KFGN Reporting Station
Haze Haze  
Wind Chill: -10°   Ceiling: 200
Heat Index: -6°   Visibility: 1mi
Dew Point: -7°   Wind: 6mph
Humidity: 93%   Direction: 200°SSW
Pressure: 30.03"   Gusts: NA
Location:  49.35°N, 95.08°W
Report Text: KFGN 271034Z AUTO 20005KT 1SM BR OVC002 M06/M07 A3003 RMK AO2
Loading
Personal Weather Stations






























Interactive Weather Map New forecast layout! Learn more

10-Day Weather Forecast

Advertisements
Track Severe Weather on mobile